sensor_id;sensor_type;location;lat;lon;timestamp;P1;durP1;ratioP1;P2;durP2;ratioP2
14143;SDS011;7152;48.348;10.980;2022-11-20T00:01:09;6.20;;;5.60;;
14143;SDS011;7152;48.348;10.980;2022-11-20T00:03:43;6.00;;;5.50;;
14143;SDS011;7152;48.348;10.980;2022-11-20T00:06:10;6.60;;;5.43;;
14143;SDS011;7152;48.348;10.980;2022-11-20T00:08:37;7.73;;;5.20;;
14143;SDS011;7152;48.348;10.980;2022-11-20T00:11:07;5.30;;;4.67;;
14143;SDS011;7152;48.348;10.980;2022-11-20T00:13:37;5.40;;;4.90;;
14143;SDS011;7152;48.348;10.980;2022-11-20T00:16:05;5.37;;;4.87;;
14143;SDS011;7152;48.348;10.980;2022-11-20T00:18:32;7.03;;;5.20;;
14143;SDS011;7152;48.348;10.980;2022-11-20T00:21:05;6.80;;;5.40;;
14143;SDS011;7152;48.348;10.980;2022-11-20T00:23:32;5.17;;;4.30;;
14143;SDS011;7152;48.348;10.980;2022-11-20T00:26:02;6.30;;;4.87;;
14143;SDS011;7152;48.348;10.980;2022-11-20T00:28:29;5.40;;;4.90;;
14143;SDS011;7152;48.348;10.980;2022-11-20T00:31:02;6.27;;;4.30;;
14143;SDS011;7152;48.348;10.980;2022-11-20T00:33:36;5.80;;;5.20;;
14143;SDS011;7152;48.348;10.980;2022-11-20T00:36:03;6.03;;;5.30;;
14143;SDS011;7152;48.348;10.980;2022-11-20T00:38:33;5.13;;;4.63;;
14143;SDS011;7152;48.348;10.980;2022-11-20T00:41:00;7.40;;;4.90;;
14143;SDS011;7152;48.348;10.980;2022-11-20T00:43:29;5.27;;;4.77;;
14143;SDS011;7152;48.348;10.980;2022-11-20T00:48:24;6.47;;;4.63;;
14143;SDS011;7152;48.348;10.980;2022-11-20T00:50:51;5.47;;;4.83;;
14143;SDS011;7152;48.348;10.980;2022-11-20T00:53:16;6.30;;;5.30;;
14143;SDS011;7152;48.348;10.980;2022-11-20T00:55:42;5.60;;;5.10;;
14143;SDS011;7152;48.348;10.980;2022-11-20T00:58:07;7.73;;;5.23;;
14143;SDS011;7152;48.348;10.980;2022-11-20T01:00:33;5.70;;;5.10;;
14143;SDS011;7152;48.348;10.980;2022-11-20T01:02:59;5.50;;;4.63;;
14143;SDS011;7152;48.348;10.980;2022-11-20T01:05:25;5.77;;;5.07;;
14143;SDS011;7152;48.348;10.980;2022-11-20T01:07:50;4.77;;;4.33;;
14143;SDS011;7152;48.348;10.980;2022-11-20T01:10:16;5.30;;;4.40;;
14143;SDS011;7152;48.348;10.980;2022-11-20T01:12:42;5.77;;;4.67;;
14143;SDS011;7152;48.348;10.980;2022-11-20T01:15:08;5.93;;;5.10;;
14143;SDS011;7152;48.348;10.980;2022-11-20T01:17:33;4.97;;;4.47;;
14143;SDS011;7152;48.348;10.980;2022-11-20T01:19:59;5.07;;;4.67;;
14143;SDS011;7152;48.348;10.980;2022-11-20T01:22:25;6.50;;;4.80;;
14143;SDS011;7152;48.348;10.980;2022-11-20T01:24:50;5.63;;;5.00;;
14143;SDS011;7152;48.348;10.980;2022-11-20T01:27:16;6.07;;;4.83;;
14143;SDS011;7152;48.348;10.980;2022-11-20T01:29:41;7.33;;;5.10;;
14143;SDS011;7152;48.348;10.980;2022-11-20T01:32:07;5.87;;;4.73;;
14143;SDS011;7152;48.348;10.980;2022-11-20T01:34:33;9.10;;;5.63;;
14143;SDS011;7152;48.348;10.980;2022-11-20T01:36:58;6.93;;;5.13;;
14143;SDS011;7152;48.348;10.980;2022-11-20T01:39:24;5.73;;;4.60;;
14143;SDS011;7152;48.348;10.980;2022-11-20T01:41:51;4.90;;;4.40;;
14143;SDS011;7152;48.348;10.980;2022-11-20T01:47:30;5.30;;;4.80;;
14143;SDS011;7152;48.348;10.980;2022-11-20T01:50:04;4.70;;;4.20;;
14143;SDS011;7152;48.348;10.980;2022-11-20T01:52:52;4.50;;;4.10;;
14143;SDS011;7152;48.348;10.980;2022-11-20T01:55:22;5.37;;;4.90;;
14143;SDS011;7152;48.348;10.980;2022-11-20T01:58:09;6.20;;;4.90;;
14143;SDS011;7152;48.348;10.980;2022-11-20T02:00:36;5.37;;;4.87;;
14143;SDS011;7152;48.348;10.980;2022-11-20T02:03:06;5.17;;;4.67;;
14143;SDS011;7152;48.348;10.980;2022-11-20T02:05:50;6.53;;;4.50;;
14143;SDS011;7152;48.348;10.980;2022-11-20T02:08:26;6.60;;;5.37;;
14143;SDS011;7152;48.348;10.980;2022-11-20T02:10:51;5.80;;;4.90;;
14143;SDS011;7152;48.348;10.980;2022-11-20T02:13:17;5.40;;;4.67;;
14143;SDS011;7152;48.348;10.980;2022-11-20T02:16:01;5.30;;;4.80;;
14143;SDS011;7152;48.348;10.980;2022-11-20T02:18:28;6.00;;;4.87;;
14143;SDS011;7152;48.348;10.980;2022-11-20T02:20:57;6.33;;;5.20;;
14143;SDS011;7152;48.348;10.980;2022-11-20T02:26:32;6.70;;;5.10;;
14143;SDS011;7152;48.348;10.980;2022-11-20T02:29:03;5.40;;;4.53;;
14143;SDS011;7152;48.348;10.980;2022-11-20T02:31:29;5.97;;;5.03;;
14143;SDS011;7152;48.348;10.980;2022-11-20T02:33:58;5.63;;;5.00;;
14143;SDS011;7152;48.348;10.980;2022-11-20T02:36:24;6.00;;;5.43;;
14143;SDS011;7152;48.348;10.980;2022-11-20T02:38:52;5.20;;;4.70;;
14143;SDS011;7152;48.348;10.980;2022-11-20T02:41:18;5.50;;;4.67;;
14143;SDS011;7152;48.348;10.980;2022-11-20T02:43:43;5.77;;;5.07;;
14143;SDS011;7152;48.348;10.980;2022-11-20T02:46:09;5.97;;;5.27;;
14143;SDS011;7152;48.348;10.980;2022-11-20T02:48:35;5.40;;;4.90;;
14143;SDS011;7152;48.348;10.980;2022-11-20T02:51:00;6.07;;;5.57;;
14143;SDS011;7152;48.348;10.980;2022-11-20T02:53:26;6.83;;;5.43;;
14143;SDS011;7152;48.348;10.980;2022-11-20T02:55:52;5.30;;;4.73;;
14143;SDS011;7152;48.348;10.980;2022-11-20T02:58:18;5.47;;;4.97;;
14143;SDS011;7152;48.348;10.980;2022-11-20T03:00:43;5.93;;;5.20;;
14143;SDS011;7152;48.348;10.980;2022-11-20T03:03:09;6.03;;;5.43;;
14143;SDS011;7152;48.348;10.980;2022-11-20T03:05:35;5.97;;;5.33;;
14143;SDS011;7152;48.348;10.980;2022-11-20T03:08:00;5.30;;;4.80;;
14143;SDS011;7152;48.348;10.980;2022-11-20T03:10:26;6.57;;;5.10;;
14143;SDS011;7152;48.348;10.980;2022-11-20T03:12:54;6.80;;;5.07;;
14143;SDS011;7152;48.348;10.980;2022-11-20T03:15:21;4.43;;;4.03;;
14143;SDS011;7152;48.348;10.980;2022-11-20T03:17:48;5.57;;;4.97;;
14143;SDS011;7152;48.348;10.980;2022-11-20T03:20:13;5.63;;;4.77;;
14143;SDS011;7152;48.348;10.980;2022-11-20T03:22:39;5.20;;;4.70;;
14143;SDS011;7152;48.348;10.980;2022-11-20T03:25:05;5.53;;;4.70;;
14143;SDS011;7152;48.348;10.980;2022-11-20T03:27:32;4.90;;;4.40;;
14143;SDS011;7152;48.348;10.980;2022-11-20T03:29:59;5.47;;;4.63;;
14143;SDS011;7152;48.348;10.980;2022-11-20T03:32:25;4.97;;;3.97;;
14143;SDS011;7152;48.348;10.980;2022-11-20T03:34:50;6.83;;;4.70;;
14143;SDS011;7152;48.348;10.980;2022-11-20T03:37:16;4.30;;;3.90;;
14143;SDS011;7152;48.348;10.980;2022-11-20T03:39:41;5.67;;;4.93;;
14143;SDS011;7152;48.348;10.980;2022-11-20T03:42:08;6.37;;;4.40;;
14143;SDS011;7152;48.348;10.980;2022-11-20T03:44:54;4.73;;;4.33;;
14143;SDS011;7152;48.348;10.980;2022-11-20T03:47:19;4.80;;;4.17;;
14143;SDS011;7152;48.348;10.980;2022-11-20T03:49:45;4.20;;;3.80;;
14143;SDS011;7152;48.348;10.980;2022-11-20T03:52:11;4.43;;;4.03;;
14143;SDS011;7152;48.348;10.980;2022-11-20T03:54:36;4.80;;;4.30;;
14143;SDS011;7152;48.348;10.980;2022-11-20T03:57:02;5.03;;;4.37;;
14143;SDS011;7152;48.348;10.980;2022-11-20T03:59:28;5.10;;;4.03;;
14143;SDS011;7152;48.348;10.980;2022-11-20T04:01:53;4.73;;;4.33;;
14143;SDS011;7152;48.348;10.980;2022-11-20T04:04:19;5.80;;;4.50;;
14143;SDS011;7152;48.348;10.980;2022-11-20T04:06:44;4.47;;;3.80;;
14143;SDS011;7152;48.348;10.980;2022-11-20T04:09:10;4.93;;;4.53;;
14143;SDS011;7152;48.348;10.980;2022-11-20T04:11:36;4.37;;;3.60;;
14143;SDS011;7152;48.348;10.980;2022-11-20T04:14:04;4.20;;;3.83;;
14143;SDS011;7152;48.348;10.980;2022-11-20T04:16:35;4.97;;;4.27;;
14143;SDS011;7152;48.348;10.980;2022-11-20T04:19:02;4.40;;;4.00;;
14143;SDS011;7152;48.348;10.980;2022-11-20T04:21:29;5.53;;;4.37;;
14143;SDS011;7152;48.348;10.980;2022-11-20T04:23:55;3.80;;;3.50;;
14143;SDS011;7152;48.348;10.980;2022-11-20T04:26:21;4.37;;;4.00;;
14143;SDS011;7152;48.348;10.980;2022-11-20T04:28:48;4.30;;;3.90;;
14143;SDS011;7152;48.348;10.980;2022-11-20T04:31:15;4.40;;;4.00;;
14143;SDS011;7152;48.348;10.980;2022-11-20T04:33:43;4.73;;;3.87;;
14143;SDS011;7152;48.348;10.980;2022-11-20T04:36:19;4.23;;;3.90;;
14143;SDS011;7152;48.348;10.980;2022-11-20T04:38:50;4.00;;;3.70;;
14143;SDS011;7152;48.348;10.980;2022-11-20T04:41:20;4.43;;;4.03;;
14143;SDS011;7152;48.348;10.980;2022-11-20T04:43:48;4.60;;;3.63;;
14143;SDS011;7152;48.348;10.980;2022-11-20T04:46:15;4.17;;;3.77;;
14143;SDS011;7152;48.348;10.980;2022-11-20T04:48:41;4.47;;;4.00;;
14143;SDS011;7152;48.348;10.980;2022-11-20T04:51:07;4.10;;;3.80;;
14143;SDS011;7152;48.348;10.980;2022-11-20T04:53:32;4.30;;;3.90;;
14143;SDS011;7152;48.348;10.980;2022-11-20T04:56:05;6.00;;;3.47;;
14143;SDS011;7152;48.348;10.980;2022-11-20T04:58:32;4.53;;;4.17;;
14143;SDS011;7152;48.348;10.980;2022-11-20T05:01:05;6.00;;;4.90;;
14143;SDS011;7152;48.348;10.980;2022-11-20T05:03:32;10.90;;;8.30;;
14143;SDS011;7152;48.348;10.980;2022-11-20T05:06:02;12.70;;;9.73;;
14143;SDS011;7152;48.348;10.980;2022-11-20T05:08:29;7.33;;;5.63;;
14143;SDS011;7152;48.348;10.980;2022-11-20T05:11:08;4.63;;;4.23;;
14143;SDS011;7152;48.348;10.980;2022-11-20T05:13:36;3.97;;;3.67;;
14143;SDS011;7152;48.348;10.980;2022-11-20T05:16:03;4.67;;;4.03;;
14143;SDS011;7152;48.348;10.980;2022-11-20T05:18:33;5.40;;;3.70;;
14143;SDS011;7152;48.348;10.980;2022-11-20T05:20:59;6.03;;;4.63;;
14143;SDS011;7152;48.348;10.980;2022-11-20T05:23:25;4.23;;;3.70;;
14143;SDS011;7152;48.348;10.980;2022-11-20T05:25:51;4.87;;;4.33;;
14143;SDS011;7152;48.348;10.980;2022-11-20T05:28:18;4.07;;;3.77;;
14143;SDS011;7152;48.348;10.980;2022-11-20T05:30:44;5.07;;;3.43;;
14143;SDS011;7152;48.348;10.980;2022-11-20T05:33:09;4.27;;;3.47;;
14143;SDS011;7152;48.348;10.980;2022-11-20T05:35:35;3.90;;;3.50;;
14143;SDS011;7152;48.348;10.980;2022-11-20T05:38:01;4.43;;;3.93;;
14143;SDS011;7152;48.348;10.980;2022-11-20T05:40:26;4.57;;;4.17;;
14143;SDS011;7152;48.348;10.980;2022-11-20T05:42:52;3.43;;;3.13;;
14143;SDS011;7152;48.348;10.980;2022-11-20T05:45:18;3.67;;;3.23;;
14143;SDS011;7152;48.348;10.980;2022-11-20T05:47:43;4.20;;;3.80;;
14143;SDS011;7152;48.348;10.980;2022-11-20T05:50:09;4.07;;;3.73;;
14143;SDS011;7152;48.348;10.980;2022-11-20T05:52:35;4.33;;;3.20;;
14143;SDS011;7152;48.348;10.980;2022-11-20T05:55:00;3.37;;;3.07;;
14143;SDS011;7152;48.348;10.980;2022-11-20T05:57:26;4.57;;;3.67;;
14143;SDS011;7152;48.348;10.980;2022-11-20T05:59:52;3.77;;;3.50;;
14143;SDS011;7152;48.348;10.980;2022-11-20T06:02:17;3.70;;;3.33;;
14143;SDS011;7152;48.348;10.980;2022-11-20T06:04:43;3.73;;;3.40;;
14143;SDS011;7152;48.348;10.980;2022-11-20T06:07:09;3.67;;;2.80;;
14143;SDS011;7152;48.348;10.980;2022-11-20T06:09:34;3.57;;;3.10;;
14143;SDS011;7152;48.348;10.980;2022-11-20T06:12:00;3.23;;;3.03;;
14143;SDS011;7152;48.348;10.980;2022-11-20T06:14:25;3.77;;;3.23;;
14143;SDS011;7152;48.348;10.980;2022-11-20T06:16:51;4.03;;;3.30;;
14143;SDS011;7152;48.348;10.980;2022-11-20T06:19:17;3.90;;;3.60;;
14143;SDS011;7152;48.348;10.980;2022-11-20T06:21:42;4.50;;;4.10;;
14143;SDS011;7152;48.348;10.980;2022-11-20T06:24:08;4.07;;;3.57;;
14143;SDS011;7152;48.348;10.980;2022-11-20T06:26:35;4.07;;;3.67;;
14143;SDS011;7152;48.348;10.980;2022-11-20T06:29:01;4.30;;;3.90;;
14143;SDS011;7152;48.348;10.980;2022-11-20T06:31:26;3.83;;;3.43;;
14143;SDS011;7152;48.348;10.980;2022-11-20T06:33:52;3.27;;;2.97;;
14143;SDS011;7152;48.348;10.980;2022-11-20T06:36:19;3.70;;;3.40;;
14143;SDS011;7152;48.348;10.980;2022-11-20T06:38:46;3.73;;;3.40;;
14143;SDS011;7152;48.348;10.980;2022-11-20T06:41:13;5.03;;;3.43;;
14143;SDS011;7152;48.348;10.980;2022-11-20T06:43:43;4.63;;;4.10;;
14143;SDS011;7152;48.348;10.980;2022-11-20T06:46:10;4.60;;;4.17;;
14143;SDS011;7152;48.348;10.980;2022-11-20T06:48:36;5.67;;;4.07;;
14143;SDS011;7152;48.348;10.980;2022-11-20T06:51:03;4.97;;;4.43;;
14143;SDS011;7152;48.348;10.980;2022-11-20T06:53:29;3.90;;;3.50;;
14143;SDS011;7152;48.348;10.980;2022-11-20T06:55:55;4.23;;;3.93;;
14143;SDS011;7152;48.348;10.980;2022-11-20T06:58:22;4.47;;;4.07;;
14143;SDS011;7152;48.348;10.980;2022-11-20T07:00:51;3.30;;;3.00;;
14143;SDS011;7152;48.348;10.980;2022-11-20T07:03:16;3.30;;;3.00;;
14143;SDS011;7152;48.348;10.980;2022-11-20T07:05:42;4.07;;;3.77;;
14143;SDS011;7152;48.348;10.980;2022-11-20T07:08:08;4.83;;;3.97;;
14143;SDS011;7152;48.348;10.980;2022-11-20T07:10:34;3.07;;;2.87;;
14143;SDS011;7152;48.348;10.980;2022-11-20T07:13:00;3.50;;;3.20;;
14143;SDS011;7152;48.348;10.980;2022-11-20T07:15:26;3.20;;;3.00;;
14143;SDS011;7152;48.348;10.980;2022-11-20T07:17:52;3.47;;;3.13;;
14143;SDS011;7152;48.348;10.980;2022-11-20T07:20:17;3.57;;;2.93;;
14143;SDS011;7152;48.348;10.980;2022-11-20T07:22:43;3.47;;;3.17;;
14143;SDS011;7152;48.348;10.980;2022-11-20T07:25:09;5.07;;;3.07;;
14143;SDS011;7152;48.348;10.980;2022-11-20T07:27:35;4.23;;;3.60;;
14143;SDS011;7152;48.348;10.980;2022-11-20T07:30:01;3.37;;;3.07;;
14143;SDS011;7152;48.348;10.980;2022-11-20T07:32:28;3.47;;;3.17;;
14143;SDS011;7152;48.348;10.980;2022-11-20T07:34:54;3.53;;;3.23;;
14143;SDS011;7152;48.348;10.980;2022-11-20T07:37:20;3.50;;;3.20;;
14143;SDS011;7152;48.348;10.980;2022-11-20T07:39:45;4.20;;;3.80;;
14143;SDS011;7152;48.348;10.980;2022-11-20T07:42:11;4.40;;;3.60;;
14143;SDS011;7152;48.348;10.980;2022-11-20T07:44:37;4.00;;;3.60;;
14143;SDS011;7152;48.348;10.980;2022-11-20T07:47:03;3.80;;;3.50;;
14143;SDS011;7152;48.348;10.980;2022-11-20T07:49:29;3.70;;;3.40;;
14143;SDS011;7152;48.348;10.980;2022-11-20T07:51:55;4.73;;;3.37;;
14143;SDS011;7152;48.348;10.980;2022-11-20T07:54:21;4.13;;;3.10;;
14143;SDS011;7152;48.348;10.980;2022-11-20T07:56:47;4.33;;;3.97;;
14143;SDS011;7152;48.348;10.980;2022-11-20T07:59:13;3.73;;;3.43;;
14143;SDS011;7152;48.348;10.980;2022-11-20T08:01:39;3.70;;;3.23;;
14143;SDS011;7152;48.348;10.980;2022-11-20T08:04:05;3.47;;;3.27;;
14143;SDS011;7152;48.348;10.980;2022-11-20T08:06:31;3.90;;;3.50;;
14143;SDS011;7152;48.348;10.980;2022-11-20T08:08:57;4.00;;;3.47;;
14143;SDS011;7152;48.348;10.980;2022-11-20T08:11:23;4.10;;;3.70;;
14143;SDS011;7152;48.348;10.980;2022-11-20T08:14:07;4.20;;;3.80;;
14143;SDS011;7152;48.348;10.980;2022-11-20T08:16:48;4.37;;;3.37;;
14143;SDS011;7152;48.348;10.980;2022-11-20T08:19:14;4.13;;;3.73;;
14143;SDS011;7152;48.348;10.980;2022-11-20T08:21:41;3.40;;;3.10;;
14143;SDS011;7152;48.348;10.980;2022-11-20T08:24:08;3.90;;;3.40;;
14143;SDS011;7152;48.348;10.980;2022-11-20T08:26:34;3.90;;;3.47;;
14143;SDS011;7152;48.348;10.980;2022-11-20T08:29:01;3.77;;;3.47;;
14143;SDS011;7152;48.348;10.980;2022-11-20T08:31:27;3.60;;;3.30;;
14143;SDS011;7152;48.348;10.980;2022-11-20T08:33:53;5.20;;;3.50;;
14143;SDS011;7152;48.348;10.980;2022-11-20T08:36:20;4.67;;;3.90;;
14143;SDS011;7152;48.348;10.980;2022-11-20T08:38:47;3.13;;;2.80;;
14143;SDS011;7152;48.348;10.980;2022-11-20T08:41:13;3.57;;;3.27;;
14143;SDS011;7152;48.348;10.980;2022-11-20T08:46:23;4.60;;;3.20;;
14143;SDS011;7152;48.348;10.980;2022-11-20T08:48:53;3.43;;;3.13;;
14143;SDS011;7152;48.348;10.980;2022-11-20T08:51:19;4.93;;;3.37;;
14143;SDS011;7152;48.348;10.980;2022-11-20T08:53:45;3.57;;;3.27;;
14143;SDS011;7152;48.348;10.980;2022-11-20T08:56:13;3.90;;;3.43;;
14143;SDS011;7152;48.348;10.980;2022-11-20T08:58:39;3.20;;;2.90;;
14143;SDS011;7152;48.348;10.980;2022-11-20T09:01:05;3.50;;;3.20;;
14143;SDS011;7152;48.348;10.980;2022-11-20T09:03:31;3.87;;;3.20;;
14143;SDS011;7152;48.348;10.980;2022-11-20T09:05:57;3.50;;;3.17;;
14143;SDS011;7152;48.348;10.980;2022-11-20T09:08:28;3.40;;;3.10;;
14143;SDS011;7152;48.348;10.980;2022-11-20T09:10:54;3.03;;;2.80;;
14143;SDS011;7152;48.348;10.980;2022-11-20T09:13:21;2.60;;;2.40;;
14143;SDS011;7152;48.348;10.980;2022-11-20T09:15:54;4.37;;;3.07;;
14143;SDS011;7152;48.348;10.980;2022-11-20T09:18:21;2.77;;;2.40;;
14143;SDS011;7152;48.348;10.980;2022-11-20T09:20:47;3.03;;;2.67;;
14143;SDS011;7152;48.348;10.980;2022-11-20T09:23:14;2.70;;;2.50;;
14143;SDS011;7152;48.348;10.980;2022-11-20T09:25:40;2.93;;;2.63;;
14143;SDS011;7152;48.348;10.980;2022-11-20T09:28:05;2.73;;;2.53;;
14143;SDS011;7152;48.348;10.980;2022-11-20T09:30:31;2.97;;;2.77;;
14143;SDS011;7152;48.348;10.980;2022-11-20T09:32:56;4.23;;;3.03;;
14143;SDS011;7152;48.348;10.980;2022-11-20T09:35:22;2.73;;;1.97;;
14143;SDS011;7152;48.348;10.980;2022-11-20T09:37:48;3.47;;;2.33;;
14143;SDS011;7152;48.348;10.980;2022-11-20T09:40:24;3.10;;;2.80;;
14143;SDS011;7152;48.348;10.980;2022-11-20T09:54:20;2.73;;;2.20;;
14143;SDS011;7152;48.348;10.980;2022-11-20T09:57:00;2.13;;;1.80;;
14143;SDS011;7152;48.348;10.980;2022-11-20T09:59:43;2.33;;;2.00;;
14143;SDS011;7152;48.348;10.980;2022-11-20T10:29:15;1.70;;;1.60;;
14143;SDS011;7152;48.348;10.980;2022-11-20T10:31:44;2.83;;;1.77;;
14143;SDS011;7152;48.348;10.980;2022-11-20T10:34:37;2.13;;;1.80;;
14143;SDS011;7152;48.348;10.980;2022-11-20T10:37:09;1.70;;;1.50;;
14143;SDS011;7152;48.348;10.980;2022-11-20T10:39:42;1.87;;;1.77;;
14143;SDS011;7152;48.348;10.980;2022-11-20T10:42:28;2.13;;;1.90;;
14143;SDS011;7152;48.348;10.980;2022-11-20T10:44:58;1.63;;;1.53;;
14143;SDS011;7152;48.348;10.980;2022-11-20T10:47:36;2.23;;;1.80;;
14143;SDS011;7152;48.348;10.980;2022-11-20T10:50:03;1.67;;;1.57;;
14143;SDS011;7152;48.348;10.980;2022-11-20T10:52:38;2.00;;;1.63;;
14143;SDS011;7152;48.348;10.980;2022-11-20T10:55:23;1.67;;;1.47;;
14143;SDS011;7152;48.348;10.980;2022-11-20T10:58:09;1.73;;;1.47;;
14143;SDS011;7152;48.348;10.980;2022-11-20T11:00:39;1.70;;;1.60;;
14143;SDS011;7152;48.348;10.980;2022-11-20T11:03:25;1.57;;;1.47;;
14143;SDS011;7152;48.348;10.980;2022-11-20T11:08:40;1.83;;;1.33;;
14143;SDS011;7152;48.348;10.980;2022-11-20T11:11:19;2.10;;;1.10;;
14143;SDS011;7152;48.348;10.980;2022-11-20T11:13:51;1.33;;;1.20;;
14143;SDS011;7152;48.348;10.980;2022-11-20T11:16:26;3.37;;;1.43;;
14143;SDS011;7152;48.348;10.980;2022-11-20T11:19:03;1.33;;;1.23;;
14143;SDS011;7152;48.348;10.980;2022-11-20T11:21:30;1.10;;;1.10;;
14143;SDS011;7152;48.348;10.980;2022-11-20T11:24:02;1.40;;;1.30;;
14143;SDS011;7152;48.348;10.980;2022-11-20T11:26:29;1.50;;;1.40;;
14143;SDS011;7152;48.348;10.980;2022-11-20T11:29:02;1.30;;;1.20;;
14143;SDS011;7152;48.348;10.980;2022-11-20T11:31:30;1.53;;;1.43;;
14143;SDS011;7152;48.348;10.980;2022-11-20T11:34:06;1.90;;;1.73;;
14143;SDS011;7152;48.348;10.980;2022-11-20T11:36:42;2.60;;;1.63;;
14143;SDS011;7152;48.348;10.980;2022-11-20T11:39:18;1.67;;;1.50;;
14143;SDS011;7152;48.348;10.980;2022-11-20T11:41:45;1.73;;;1.20;;
14143;SDS011;7152;48.348;10.980;2022-11-20T11:47:44;1.80;;;1.50;;
14143;SDS011;7152;48.348;10.980;2022-11-20T11:55:29;2.40;;;1.30;;
14143;SDS011;7152;48.348;10.980;2022-11-20T11:58:17;1.27;;;1.17;;
14143;SDS011;7152;48.348;10.980;2022-11-20T12:01:10;1.47;;;1.37;;
14143;SDS011;7152;48.348;10.980;2022-11-20T12:06:45;1.43;;;1.33;;
14143;SDS011;7152;48.348;10.980;2022-11-20T12:09:16;1.57;;;1.07;;
14143;SDS011;7152;48.348;10.980;2022-11-20T12:11:47;1.60;;;1.50;;
14143;SDS011;7152;48.348;10.980;2022-11-20T12:16:56;2.40;;;1.60;;
14143;SDS011;7152;48.348;10.980;2022-11-20T12:19:29;1.77;;;1.67;;
14143;SDS011;7152;48.348;10.980;2022-11-20T12:30:21;2.00;;;1.67;;
14143;SDS011;7152;48.348;10.980;2022-11-20T12:36:05;3.00;;;2.50;;
14143;SDS011;7152;48.348;10.980;2022-11-20T12:41:37;2.80;;;1.80;;
14143;SDS011;7152;48.348;10.980;2022-11-20T13:07:34;1.57;;;1.43;;
14143;SDS011;7152;48.348;10.980;2022-11-20T13:10:01;2.63;;;2.03;;
14143;SDS011;7152;48.348;10.980;2022-11-20T13:12:39;1.50;;;1.40;;
14143;SDS011;7152;48.348;10.980;2022-11-20T13:17:57;2.00;;;1.90;;
14143;SDS011;7152;48.348;10.980;2022-11-20T13:20:25;1.80;;;1.70;;
14143;SDS011;7152;48.348;10.980;2022-11-20T13:22:53;2.00;;;1.90;;
14143;SDS011;7152;48.348;10.980;2022-11-20T13:25:23;3.90;;;2.33;;
14143;SDS011;7152;48.348;10.980;2022-11-20T13:27:49;1.80;;;1.70;;
14143;SDS011;7152;48.348;10.980;2022-11-20T13:30:16;2.17;;;2.03;;
14143;SDS011;7152;48.348;10.980;2022-11-20T13:35:27;1.90;;;1.73;;
14143;SDS011;7152;48.348;10.980;2022-11-20T13:38:39;2.17;;;1.70;;
14143;SDS011;7152;48.348;10.980;2022-11-20T13:40:52;3.13;;;1.80;;
14143;SDS011;7152;48.348;10.980;2022-11-20T13:43:22;2.00;;;1.90;;
14143;SDS011;7152;48.348;10.980;2022-11-20T13:46:09;2.13;;;2.00;;
14143;SDS011;7152;48.348;10.980;2022-11-20T13:48:38;2.23;;;2.10;;
14143;SDS011;7152;48.348;10.980;2022-11-20T13:51:15;1.97;;;1.87;;
14143;SDS011;7152;48.348;10.980;2022-11-20T13:54:07;2.73;;;2.37;;
14143;SDS011;7152;48.348;10.980;2022-11-20T14:02:15;2.43;;;2.07;;
14143;SDS011;7152;48.348;10.980;2022-11-20T14:04:44;3.77;;;2.40;;
14143;SDS011;7152;48.348;10.980;2022-11-20T14:07:13;3.37;;;2.10;;
14143;SDS011;7152;48.348;10.980;2022-11-20T14:09:39;1.70;;;1.60;;
14143;SDS011;7152;48.348;10.980;2022-11-20T14:12:16;2.07;;;1.83;;
14143;SDS011;7152;48.348;10.980;2022-11-20T14:14:48;1.80;;;1.70;;
14143;SDS011;7152;48.348;10.980;2022-11-20T14:17:22;1.93;;;1.80;;
14143;SDS011;7152;48.348;10.980;2022-11-20T14:19:50;2.00;;;1.77;;
14143;SDS011;7152;48.348;10.980;2022-11-20T14:22:19;2.80;;;1.90;;
14143;SDS011;7152;48.348;10.980;2022-11-20T14:24:48;1.83;;;1.73;;
14143;SDS011;7152;48.348;10.980;2022-11-20T14:27:18;2.20;;;1.63;;
14143;SDS011;7152;48.348;10.980;2022-11-20T14:29:46;1.90;;;1.70;;
14143;SDS011;7152;48.348;10.980;2022-11-20T14:32:28;2.43;;;1.63;;
14143;SDS011;7152;48.348;10.980;2022-11-20T14:34:55;2.47;;;2.27;;
14143;SDS011;7152;48.348;10.980;2022-11-20T14:37:27;2.07;;;1.60;;
14143;SDS011;7152;48.348;10.980;2022-11-20T14:39:58;1.70;;;1.60;;
14143;SDS011;7152;48.348;10.980;2022-11-20T14:42:27;1.87;;;1.77;;
14143;SDS011;7152;48.348;10.980;2022-11-20T14:44:57;2.67;;;1.70;;
14143;SDS011;7152;48.348;10.980;2022-11-20T14:47:25;2.10;;;1.90;;
14143;SDS011;7152;48.348;10.980;2022-11-20T14:49:54;3.00;;;1.70;;
14143;SDS011;7152;48.348;10.980;2022-11-20T14:52:25;2.80;;;1.70;;
14143;SDS011;7152;48.348;10.980;2022-11-20T14:54:53;2.30;;;1.90;;
14143;SDS011;7152;48.348;10.980;2022-11-20T14:59:51;1.30;;;1.20;;
14143;SDS011;7152;48.348;10.980;2022-11-20T15:02:44;1.63;;;1.30;;
14143;SDS011;7152;48.348;10.980;2022-11-20T15:05:11;2.40;;;1.40;;
14143;SDS011;7152;48.348;10.980;2022-11-20T15:07:39;1.40;;;1.30;;
14143;SDS011;7152;48.348;10.980;2022-11-20T15:10:11;1.60;;;1.50;;
14143;SDS011;7152;48.348;10.980;2022-11-20T15:12:50;2.13;;;1.70;;
14143;SDS011;7152;48.348;10.980;2022-11-20T15:15:23;2.83;;;1.73;;
14143;SDS011;7152;48.348;10.980;2022-11-20T15:18:09;1.40;;;1.30;;
14143;SDS011;7152;48.348;10.980;2022-11-20T15:20:57;2.33;;;1.67;;
14143;SDS011;7152;48.348;10.980;2022-11-20T15:23:26;2.00;;;1.90;;
14143;SDS011;7152;48.348;10.980;2022-11-20T15:25:53;2.07;;;1.60;;
14143;SDS011;7152;48.348;10.980;2022-11-20T15:28:20;2.03;;;1.70;;
14143;SDS011;7152;48.348;10.980;2022-11-20T15:30:56;1.83;;;1.70;;
14143;SDS011;7152;48.348;10.980;2022-11-20T15:33:22;1.63;;;1.53;;
14143;SDS011;7152;48.348;10.980;2022-11-20T15:35:48;1.60;;;1.30;;
14143;SDS011;7152;48.348;10.980;2022-11-20T15:38:13;1.00;;;1.00;;
14143;SDS011;7152;48.348;10.980;2022-11-20T15:40:39;1.97;;;1.27;;
14143;SDS011;7152;48.348;10.980;2022-11-20T15:43:05;1.30;;;1.20;;
14143;SDS011;7152;48.348;10.980;2022-11-20T15:45:42;1.30;;;1.20;;
14143;SDS011;7152;48.348;10.980;2022-11-20T15:48:18;1.03;;;1.00;;
14143;SDS011;7152;48.348;10.980;2022-11-20T15:50:50;1.80;;;1.50;;
14143;SDS011;7152;48.348;10.980;2022-11-20T15:53:17;2.33;;;1.20;;
14143;SDS011;7152;48.348;10.980;2022-11-20T15:55:43;1.30;;;1.20;;
14143;SDS011;7152;48.348;10.980;2022-11-20T15:58:08;1.80;;;1.40;;
14143;SDS011;7152;48.348;10.980;2022-11-20T16:00:34;1.70;;;1.40;;
14143;SDS011;7152;48.348;10.980;2022-11-20T16:03:00;1.57;;;1.47;;
14143;SDS011;7152;48.348;10.980;2022-11-20T16:05:28;1.10;;;1.00;;
14143;SDS011;7152;48.348;10.980;2022-11-20T16:07:55;1.50;;;1.40;;
14143;SDS011;7152;48.348;10.980;2022-11-20T16:10:21;1.73;;;1.40;;
14143;SDS011;7152;48.348;10.980;2022-11-20T16:12:47;3.37;;;1.50;;
14143;SDS011;7152;48.348;10.980;2022-11-20T16:15:43;2.07;;;1.50;;
14143;SDS011;7152;48.348;10.980;2022-11-20T16:18:14;2.07;;;1.90;;
14143;SDS011;7152;48.348;10.980;2022-11-20T16:20:41;2.50;;;1.83;;
14143;SDS011;7152;48.348;10.980;2022-11-20T16:23:07;1.70;;;1.60;;
14143;SDS011;7152;48.348;10.980;2022-11-20T16:25:33;1.73;;;1.63;;
14143;SDS011;7152;48.348;10.980;2022-11-20T16:27:58;5.53;;;2.40;;
14143;SDS011;7152;48.348;10.980;2022-11-20T16:30:24;3.10;;;1.60;;
14143;SDS011;7152;48.348;10.980;2022-11-20T16:32:50;2.30;;;2.10;;
14143;SDS011;7152;48.348;10.980;2022-11-20T16:35:15;2.13;;;1.93;;
14143;SDS011;7152;48.348;10.980;2022-11-20T16:37:41;2.77;;;1.80;;
14143;SDS011;7152;48.348;10.980;2022-11-20T16:40:08;2.07;;;1.97;;
14143;SDS011;7152;48.348;10.980;2022-11-20T16:42:35;2.90;;;2.50;;
14143;SDS011;7152;48.348;10.980;2022-11-20T16:45:02;3.50;;;3.20;;
14143;SDS011;7152;48.348;10.980;2022-11-20T16:47:32;3.03;;;2.80;;
14143;SDS011;7152;48.348;10.980;2022-11-20T16:49:59;2.93;;;2.20;;
14143;SDS011;7152;48.348;10.980;2022-11-20T16:52:25;2.20;;;1.87;;
14143;SDS011;7152;48.348;10.980;2022-11-20T16:54:51;3.47;;;1.97;;
14143;SDS011;7152;48.348;10.980;2022-11-20T16:57:17;3.00;;;2.17;;